KEAT

Pangborn Memorial Airport

Wenatchee, Washington, USA
METAR KEAT 221855Z AUTO 24003KT 7SM CLR 11/02 A3005 RMK AO2 SLP181 T01110022
Observed Flight Rules
Oct-22 @ 18:55 UTC (40 minutes ago) Visual Flight Rules
Wind Visibility Clouds
240° at 3 knots 7 miles
  • Clear skies
Temperatures Readings
Current 11°C / 52°F
Dewpoint 2°C / 36°F
Humidity 54%
Altimeter 30.05" Hg
Pressure 1018.1 hPa
Elevation 377
METAR KEAT 221855Z AUTO 24003KT 7SM CLR 11/02 A3005 RMK AO2 SLP181 T01110022
Observed Flight Rules
Oct-22 @ 18:55 UTC
(40 minutes ago)
VFR
Wind Visibility
240° at 3 knots 7 miles
Clouds
  • Clear skies
Temperature Dewpoint
11°C / 52°F 2°C / 36°F
Humidity Altimeter Pressure
54% 30.05" Hg 1018.1 hPa